Terminal Aerodrome Forecast
Issued by NWS

Home | Current Version | Previous Version | Text Only | Print | Product List | Glossary On
Versions: 1 2 3 4 5 6 7 8 9 10 11 12 13 14 15 16 17
273
FTUS43 KIND 052320
TAFBMG
TAF
KBMG 052320Z 0600/0624 31005KT P6SM SCT200
     FM060300 VRB02KT P6SM SCT120
     FM060700 00000KT P6SM SCT080
     FM061600 23007KT P6SM BKN050
      AMD LTD TO CLD VIS AND WIND 0602/0614=

USA.gov is the U.S. government's official web portal to all federal, state and local government web resources and services.